Time;durP1;ratioP1;P1;durP2;ratioP2;P2;SDS_P1;SDS_P2;PMS_P1;PMS_P2;Temp;Humidity;BMP_temperature;BMP_pressure;BME280_temperature;BME280_humidity;BME280_pressure;Samples;Min_cycle;Max_cycle;Signal;HPM_P1;HPM_P2
2023/02/16 00:00:03;;;;;;;;;;;;;;;;;;4390011;32;19977;-73
2023/02/16 00:02:28;;;;;;;;;;;;;;;;;;4390521;32;19996;-74
2023/02/16 00:04:53;;;;;;;;;;;;;;;;;;4390772;32;20004;-74
2023/02/16 00:07:18;;;;;;;;;;;;;;;;;;4387288;32;19941;-74
2023/02/16 00:09:43;;;;;;;;;;;;;;;;;;4387241;32;19980;-74
2023/02/16 00:14:52;;;;;;;;;;;;;;;;;;4389877;32;20004;-74
2023/02/16 00:17:17;;;;;;;;;;;;;;;;;;4389708;32;19945;-73
2023/02/16 00:19:42;;;;;;;;;;;;;;;;;;4385877;32;19989;-73
2023/02/16 00:22:08;;;;;;;;;;;;;;;;;;4375162;32;20370;-74
2023/02/16 00:24:33;;;;;;;;;;;;;;;;;;4376082;32;19942;-74
2023/02/16 00:26:58;;;;;;;;;;;;;;;;;;4376127;32;19937;-73
2023/02/16 00:29:23;;;;;;;;;;;;;;;;;;4374763;32;20012;-74
2023/02/16 00:31:48;;;;;;;;;;;;;;;;;;4374889;32;19942;-74
2023/02/16 00:34:13;;;;;;;;;;;;;;;;;;4376372;32;19976;-74
2023/02/16 00:36:38;;;;;;;;;;;;;;;;;;4375243;32;19949;-74
2023/02/16 00:39:03;;;;;;;;;;;;;;;;;;4374858;32;19968;-73
2023/02/16 00:44:23;;;;;;;;;;;;;;;;;;4377871;32;19988;-75
2023/02/16 00:46:48;;;;;;;;;;;;;;;;;;4374615;32;19954;-74
2023/02/16 00:49:13;;;;;;;;;;;;;;;;;;4380603;32;19933;-74
2023/02/16 00:51:38;;;;;;;;;;;;;;;;;;4389910;32;19942;-74
2023/02/16 00:54:03;;;;;;;;;;;;;;;;;;4390210;32;20304;-73
2023/02/16 00:56:28;;;;;;;;;;;;;;;;;;4392640;32;19991;-74
2023/02/16 00:58:54;;;;;;;;;;;;;;;;;;4393702;32;19961;-73
2023/02/16 01:01:19;;;;;;;;;;;;;;;;;;4392328;32;19957;-73
2023/02/16 01:03:44;;;;;;;;;;;;;;;;;;4391454;32;20317;-74
2023/02/16 01:11:37;;;;;;;;;;;;;;;;;;4393320;32;20318;-74
2023/02/16 01:14:02;;;;;;;;;;;;;;;;;;4390611;32;20283;-73
2023/02/16 01:16:27;;;;;;;;;;;;;;;;;;4391778;32;19980;-74
2023/02/16 01:18:52;;;;;;;;;;;;;;;;;;4393351;32;20428;-73
2023/02/16 01:21:18;;;;;;;;;;;;;;;;;;4392190;32;19933;-73
2023/02/16 01:23:43;;;;;;;;;;;;;;;;;;4391157;32;19956;-73
2023/02/16 01:26:08;;;;;;;;;;;;;;;;;;4391518;32;20328;-72
2023/02/16 01:28:33;;;;;;;;;;;;;;;;;;4392447;32;20320;-73
2023/02/16 01:30:58;;;;;;;;;;;;;;;;;;4392179;32;19945;-74
2023/02/16 01:33:23;;;;;;;;;;;;;;;;;;4393778;32;19938;-73
2023/02/16 01:35:49;;;;;;;;;;;;;;;;;;4393250;32;19953;-73
2023/02/16 01:38:14;;;;;;;;;;;;;;;;;;4392798;32;19996;-74
2023/02/16 01:40:39;;;;;;;;;;;;;;;;;;4392314;32;19944;-74
2023/02/16 01:43:04;;;;;;;;;;;;;;;;;;4392477;32;20008;-73
2023/02/16 01:45:29;;;;;;;;;;;;;;;;;;4394084;32;19950;-73
2023/02/16 01:47:54;;;;;;;;;;;;;;;;;;4392617;32;20266;-74
2023/02/16 01:50:19;;;;;;;;;;;;;;;;;;4391727;32;19971;-74
2023/02/16 01:52:44;;;;;;;;;;;;;;;;;;4393880;32;19993;-72
2023/02/16 01:55:09;;;;;;;;;;;;;;;;;;4390562;32;20004;-73
2023/02/16 01:57:34;;;;;;;;;;;;;;;;;;4393692;32;19937;-73
2023/02/16 01:59:59;;;;;;;;;;;;;;;;;;4391726;32;19953;-74
2023/02/16 02:02:25;;;;;;;;;;;;;;;;;;4391527;32;19946;-73
2023/02/16 02:07:34;;;;;;;;;;;;;;;;;;4390839;32;19960;-75
2023/02/16 02:09:59;;;;;;;;;;;;;;;;;;4393468;32;19934;-73
2023/02/16 02:12:24;;;;;;;;;;;;;;;;;;4391660;32;19990;-73
2023/02/16 02:14:50;;;;;;;;;;;;;;;;;;4391900;32;19942;-74
2023/02/16 02:17:15;;;;;;;;;;;;;;;;;;4391132;32;19933;-74
2023/02/16 02:19:40;;;;;;;;;;;;;;;;;;4391451;32;20295;-75
2023/02/16 02:25:00;;;;;;;;;;;;;;;;;;4378307;32;19934;-73
2023/02/16 02:27:25;;;;;;;;;;;;;;;;;;4393010;32;19953;-73
2023/02/16 02:29:50;;;;;;;;;;;;;;;;;;4393645;32;19942;-74
2023/02/16 02:32:15;;;;;;;;;;;;;;;;;;4393201;32;19958;-73
2023/02/16 02:34:40;;;;;;;;;;;;;;;;;;4390162;32;19950;-73
2023/02/16 02:37:05;;;;;;;;;;;;;;;;;;4391283;32;20247;-74
2023/02/16 02:39:30;;;;;;;;;;;;;;;;;;4391633;32;20289;-74
2023/02/16 02:42:04;;;;;;;;;;;;;;;;;;4391181;32;19933;-72
2023/02/16 02:44:29;;;;;;;;;;;;;;;;;;4391178;32;19953;-73
2023/02/16 02:46:54;;;;;;;;;;;;;;;;;;4391293;32;19953;-73
2023/02/16 02:49:20;;;;;;;;;;;;;;;;;;4391204;32;19949;-73
2023/02/16 02:51:45;;;;;;;;;;;;;;;;;;4392122;32;19967;-74
2023/02/16 03:02:22;;;;;;;;;;;;;;;;;;4392349;32;20330;-73
2023/02/16 03:04:47;;;;;;;;;;;;;;;;;;4391709;32;20308;-73
2023/02/16 03:07:12;;;;;;;;;;;;;;;;;;4390461;32;19942;-73
2023/02/16 03:09:37;;;;;;;;;;;;;;;;;;4389699;32;19957;-73
2023/02/16 03:14:46;;;;;;;;;;;;;;;;;;4390651;32;19960;-74
2023/02/16 03:30:52;;;;;;;;;;;;;;;;;;4390840;32;19957;-73
2023/02/16 03:33:17;;;;;;;;;;;;;;;;;;4392693;32;20267;-74
2023/02/16 03:35:42;;;;;;;;;;;;;;;;;;4392342;32;20315;-74
2023/02/16 03:38:07;;;;;;;;;;;;;;;;;;4391245;32;19980;-74
2023/02/16 03:40:33;;;;;;;;;;;;;;;;;;4390060;32;19977;-74
2023/02/16 03:42:58;;;;;;;;;;;;;;;;;;4389832;32;19986;-74
2023/02/16 03:45:24;;;;;;;;;;;;;;;;;;4393266;32;19975;-74
2023/02/16 03:47:49;;;;;;;;;;;;;;;;;;4389267;32;19938;-74
2023/02/16 03:50:14;;;;;;;;;;;;;;;;;;4390623;32;19950;-74
2023/02/16 03:52:39;;;;;;;;;;;;;;;;;;4392067;32;19979;-72
2023/02/16 03:55:04;;;;;;;;;;;;;;;;;;4392031;32;19933;-74
2023/02/16 03:57:39;;;;;;;;;;;;;;;;;;4380905;27;20321;-73
2023/02/16 04:00:04;;;;;;;;;;;;;;;;;;4345814;33;19957;-73
2023/02/16 04:02:29;;;;;;;;;;;;;;;;;;4345794;33;19939;-74
2023/02/16 04:04:55;;;;;;;;;;;;;;;;;;4368233;32;20016;-73
2023/02/16 04:07:20;;;;;;;;;;;;;;;;;;4375218;32;20385;-73
2023/02/16 04:09:45;;;;;;;;;;;;;;;;;;4375258;32;19934;-74
2023/02/16 04:14:54;;;;;;;;;;;;;;;;;;4361847;33;19996;-74
2023/02/16 04:17:19;;;;;;;;;;;;;;;;;;4360268;33;19935;-74
2023/02/16 04:19:44;;;;;;;;;;;;;;;;;;4360849;33;20018;-74
2023/02/16 04:22:09;;;;;;;;;;;;;;;;;;4360843;33;19981;-72
2023/02/16 04:24:34;;;;;;;;;;;;;;;;;;4360209;33;20276;-73
2023/02/16 04:27:00;;;;;;;;;;;;;;;;;;4359021;33;19950;-73
2023/02/16 04:29:25;;;;;;;;;;;;;;;;;;4361021;32;19968;-73
2023/02/16 04:31:50;;;;;;;;;;;;;;;;;;4364777;32;19938;-73
2023/02/16 04:34:15;;;;;;;;;;;;;;;;;;4365093;32;20010;-74
2023/02/16 04:36:40;;;;;;;;;;;;;;;;;;4363045;32;19938;-73
2023/02/16 04:39:05;;;;;;;;;;;;;;;;;;4365344;32;20358;-73
2023/02/16 04:41:30;;;;;;;;;;;;;;;;;;4366682;32;19949;-73
2023/02/16 04:43:55;;;;;;;;;;;;;;;;;;4365442;32;19958;-74
2023/02/16 04:46:20;;;;;;;;;;;;;;;;;;4362254;32;19962;-73
2023/02/16 04:48:45;;;;;;;;;;;;;;;;;;4364176;32;19981;-73
2023/02/16 04:51:11;;;;;;;;;;;;;;;;;;4371438;32;19988;-73
2023/02/16 04:53:36;;;;;;;;;;;;;;;;;;4374163;32;19938;-72
2023/02/16 04:56:01;;;;;;;;;;;;;;;;;;4364289;32;19984;-74
2023/02/16 04:58:26;;;;;;;;;;;;;;;;;;4363566;32;19968;-73
2023/02/16 05:00:51;;;;;;;;;;;;;;;;;;4363332;32;20328;-73
2023/02/16 05:03:16;;;;;;;;;;;;;;;;;;4378356;32;20347;-73
2023/02/16 05:05:41;;;;;;;;;;;;;;;;;;4373208;32;19953;-73
2023/02/16 05:08:06;;;;;;;;;;;;;;;;;;4365853;32;19947;-74
2023/02/16 05:10:31;;;;;;;;;;;;;;;;;;4365534;32;19973;-73
2023/02/16 05:15:40;;;;;;;;;;;;;;;;;;4363288;32;20347;-74
2023/02/16 05:18:05;;;;;;;;;;;;;;;;;;4363203;32;19938;-73
2023/02/16 05:23:14;;;;;;;;;;;;;;;;;;4364160;32;20127;-74
2023/02/16 05:25:39;;;;;;;;;;;;;;;;;;4363266;32;19946;-75
2023/02/16 05:28:04;;;;;;;;;;;;;;;;;;4363458;32;19966;-74
2023/02/16 05:30:29;;;;;;;;;;;;;;;;;;4362414;32;19959;-76
2023/02/16 05:32:55;;;;;;;;;;;;;;;;;;4362911;32;19976;-74
2023/02/16 05:35:20;;;;;;;;;;;;;;;;;;4362404;32;19939;-74
2023/02/16 05:37:45;;;;;;;;;;;;;;;;;;4361126;33;19977;-75
2023/02/16 05:40:10;;;;;;;;;;;;;;;;;;4363951;32;19946;-75
2023/02/16 05:42:35;;;;;;;;;;;;;;;;;;4362800;32;20309;-74
2023/02/16 05:45:01;;;;;;;;;;;;;;;;;;4362899;32;19934;-75
2023/02/16 05:47:26;;;;;;;;;;;;;;;;;;4362431;32;19943;-75
2023/02/16 05:49:51;;;;;;;;;;;;;;;;;;4361385;32;19942;-74
2023/02/16 05:52:16;;;;;;;;;;;;;;;;;;4362924;32;19942;-73
2023/02/16 05:54:41;;;;;;;;;;;;;;;;;;4363457;32;19952;-74
2023/02/16 05:57:06;;;;;;;;;;;;;;;;;;4363480;32;19942;-75
2023/02/16 05:59:31;;;;;;;;;;;;;;;;;;4362516;33;19997;-75
2023/02/16 06:01:57;;;;;;;;;;;;;;;;;;4362141;32;20210;-75
2023/02/16 06:04:22;;;;;;;;;;;;;;;;;;4361804;32;19949;-77
2023/02/16 06:06:47;;;;;;;;;;;;;;;;;;4362542;32;19977;-75
2023/02/16 06:09:12;;;;;;;;;;;;;;;;;;4363476;32;19935;-74
2023/02/16 06:11:37;;;;;;;;;;;;;;;;;;4362306;32;19939;-75
2023/02/16 06:14:02;;;;;;;;;;;;;;;;;;4361768;33;20332;-74
2023/02/16 06:16:27;;;;;;;;;;;;;;;;;;4360640;32;19957;-74
2023/02/16 06:18:52;;;;;;;;;;;;;;;;;;4362981;32;19973;-74
2023/02/16 06:21:17;;;;;;;;;;;;;;;;;;4362542;32;19935;-74
2023/02/16 06:23:43;;;;;;;;;;;;;;;;;;4362526;32;19954;-75
2023/02/16 06:26:08;;;;;;;;;;;;;;;;;;4363948;32;19943;-74
2023/02/16 06:28:33;;;;;;;;;;;;;;;;;;4363934;32;19943;-75
2023/02/16 06:30:58;;;;;;;;;;;;;;;;;;4364475;32;19934;-74
2023/02/16 06:33:23;;;;;;;;;;;;;;;;;;4367610;32;19982;-74
2023/02/16 06:35:48;;;;;;;;;;;;;;;;;;4364405;32;19953;-74
2023/02/16 06:38:13;;;;;;;;;;;;;;;;;;4364085;32;20309;-73
2023/02/16 06:40:38;;;;;;;;;;;;;;;;;;4365647;32;20006;-73
2023/02/16 06:43:03;;;;;;;;;;;;;;;;;;4363404;32;19938;-74
2023/02/16 06:45:28;;;;;;;;;;;;;;;;;;4363053;32;19943;-73
2023/02/16 06:47:54;;;;;;;;;;;;;;;;;;4363568;32;20308;-75
2023/02/16 06:50:19;;;;;;;;;;;;;;;;;;4361180;32;19934;-74
2023/02/16 06:52:44;;;;;;;;;;;;;;;;;;4362556;32;19947;-75
2023/02/16 06:55:09;;;;;;;;;;;;;;;;;;4362011;32;19935;-75
2023/02/16 06:57:34;;;;;;;;;;;;;;;;;;4361854;33;19981;-75
2023/02/16 06:59:59;;;;;;;;;;;;;;;;;;4364832;32;19962;-74
2023/02/16 07:02:24;;;;;;;;;;;;;;;;;;4365530;32;19949;-73
2023/02/16 07:04:49;;;;;;;;;;;;;;;;;;4363613;32;19942;-74
2023/02/16 07:07:14;;;;;;;;;;;;;;;;;;4361147;32;20090;-74
2023/02/16 07:09:40;;;;;;;;;;;;;;;;;;4361098;32;19938;-74
2023/02/16 07:12:06;;;;;;;;;;;;;;;;;;4362984;32;19934;-74
2023/02/16 07:14:31;;;;;;;;;;;;;;;;;;4362195;32;20301;-74
2023/02/16 07:16:58;;;;;;;;;;;;;;;;;;4362636;32;20210;-74
2023/02/16 07:19:23;;;;;;;;;;;;;;;;;;4360776;32;20078;-74
2023/02/16 07:21:48;;;;;;;;;;;;;;;;;;4360187;32;19981;-75
2023/02/16 07:24:13;;;;;;;;;;;;;;;;;;4360876;32;19950;-74
2023/02/16 07:26:38;;;;;;;;;;;;;;;;;;4360607;32;19981;-74
2023/02/16 07:29:03;;;;;;;;;;;;;;;;;;4361135;32;19938;-75
2023/02/16 07:31:29;;;;;;;;;;;;;;;;;;4360933;32;20310;-75
2023/02/16 07:33:54;;;;;;;;;;;;;;;;;;4360432;32;20222;-75
2023/02/16 07:36:19;;;;;;;;;;;;;;;;;;4361203;33;19953;-76
2023/02/16 07:38:44;;;;;;;;;;;;;;;;;;4361743;32;20344;-74
2023/02/16 07:41:09;;;;;;;;;;;;;;;;;;4360878;32;19961;-74
2023/02/16 07:43:34;;;;;;;;;;;;;;;;;;4362123;32;19966;-75
2023/02/16 07:45:59;;;;;;;;;;;;;;;;;;4361055;33;19980;-75
2023/02/16 07:48:24;;;;;;;;;;;;;;;;;;4362099;32;19969;-75
2023/02/16 07:50:49;;;;;;;;;;;;;;;;;;4361115;32;19973;-75
2023/02/16 07:53:14;;;;;;;;;;;;;;;;;;4362362;32;20017;-75
2023/02/16 07:55:40;;;;;;;;;;;;;;;;;;4362144;32;19935;-74
2023/02/16 07:58:05;;;;;;;;;;;;;;;;;;4359975;33;19939;-74
2023/02/16 08:00:30;;;;;;;;;;;;;;;;;;4359653;32;20268;-75
2023/02/16 08:02:55;;;;;;;;;;;;;;;;;;4361468;32;19986;-74
2023/02/16 08:05:20;;;;;;;;;;;;;;;;;;4361461;32;19958;-75
2023/02/16 08:07:46;;;;;;;;;;;;;;;;;;4358836;32;20261;-74
2023/02/16 08:10:12;;;;;;;;;;;;;;;;;;4360029;32;19949;-75
2023/02/16 08:12:37;;;;;;;;;;;;;;;;;;4359618;32;19931;-75
2023/02/16 08:15:03;;;;;;;;;;;;;;;;;;4360020;33;19999;-74
2023/02/16 08:17:28;;;;;;;;;;;;;;;;;;4360021;32;19958;-74
2023/02/16 08:19:53;;;;;;;;;;;;;;;;;;4361760;33;19934;-75
2023/02/16 08:22:18;;;;;;;;;;;;;;;;;;4360720;33;19946;-75
2023/02/16 08:24:43;;;;;;;;;;;;;;;;;;4360028;33;19939;-75
2023/02/16 08:27:08;;;;;;;;;;;;;;;;;;4360568;33;20286;-74
2023/02/16 08:29:34;;;;;;;;;;;;;;;;;;4359789;33;19950;-75
2023/02/16 08:32:00;;;;;;;;;;;;;;;;;;4359945;32;20025;-74
2023/02/16 08:34:25;;;;;;;;;;;;;;;;;;4360507;32;19970;-73
2023/02/16 08:36:51;;;;;;;;;;;;;;;;;;4360072;32;20387;-76
2023/02/16 08:39:16;;;;;;;;;;;;;;;;;;4361520;32;20323;-75
2023/02/16 08:41:42;;;;;;;;;;;;;;;;;;4360247;33;19989;-75
2023/02/16 08:44:07;;;;;;;;;;;;;;;;;;4360453;33;19948;-74
2023/02/16 08:46:32;;;;;;;;;;;;;;;;;;4361525;33;19946;-75
2023/02/16 08:48:58;;;;;;;;;;;;;;;;;;4359046;33;19943;-76
2023/02/16 08:51:24;;;;;;;;;;;;;;;;;;4362594;32;19966;-75
2023/02/16 08:53:49;;;;;;;;;;;;;;;;;;4357464;32;19951;-75
2023/02/16 08:56:15;;;;;;;;;;;;;;;;;;4359485;32;21316;-74
2023/02/16 08:58:40;;;;;;;;;;;;;;;;;;4357077;32;19934;-75
2023/02/16 09:01:07;;;;;;;;;;;;;;;;;;4373584;32;19934;-75
2023/02/16 09:03:32;;;;;;;;;;;;;;;;;;4360504;32;19953;-74
2023/02/16 09:05:57;;;;;;;;;;;;;;;;;;4357212;33;19938;-75
2023/02/16 09:08:22;;;;;;;;;;;;;;;;;;4357966;32;19956;-75
2023/02/16 09:10:47;;;;;;;;;;;;;;;;;;4362241;33;19949;-75
2023/02/16 09:13:13;;;;;;;;;;;;;;;;;;4361226;33;19947;-75
2023/02/16 09:15:38;;;;;;;;;;;;;;;;;;4360861;32;19962;-75
2023/02/16 09:18:03;;;;;;;;;;;;;;;;;;4363285;33;19965;-74
2023/02/16 09:20:29;;;;;;;;;;;;;;;;;;4363120;32;20283;-75
2023/02/16 09:22:54;;;;;;;;;;;;;;;;;;4362629;32;20033;-75
2023/02/16 09:25:19;;;;;;;;;;;;;;;;;;4358134;32;20367;-74
2023/02/16 09:27:44;;;;;;;;;;;;;;;;;;4347816;33;20005;-75
2023/02/16 09:30:09;;;;;;;;;;;;;;;;;;4348812;32;20289;-75
2023/02/16 09:32:35;;;;;;;;;;;;;;;;;;4348384;32;19959;-74
2023/02/16 09:35:00;;;;;;;;;;;;;;;;;;4359073;32;20254;-74
2023/02/16 09:37:25;;;;;;;;;;;;;;;;;;4362793;32;19981;-73
2023/02/16 09:39:51;;;;;;;;;;;;;;;;;;4362129;32;19972;-75
2023/02/16 09:42:16;;;;;;;;;;;;;;;;;;4362089;32;19946;-76
2023/02/16 09:44:42;;;;;;;;;;;;;;;;;;4361602;32;19968;-75
2023/02/16 09:47:07;;;;;;;;;;;;;;;;;;4362945;32;19943;-75
2023/02/16 09:49:33;;;;;;;;;;;;;;;;;;4362002;33;19976;-73
2023/02/16 09:51:58;;;;;;;;;;;;;;;;;;4375010;32;19953;-74
2023/02/16 09:54:23;;;;;;;;;;;;;;;;;;4376901;32;20025;-74
2023/02/16 09:56:49;;;;;;;;;;;;;;;;;;4378548;32;20314;-74
2023/02/16 09:59:14;;;;;;;;;;;;;;;;;;4376702;32;20048;-75
2023/02/16 10:01:39;;;;;;;;;;;;;;;;;;4375699;32;19934;-74
2023/02/16 10:04:04;;;;;;;;;;;;;;;;;;4373600;32;19997;-74
2023/02/16 10:06:30;;;;;;;;;;;;;;;;;;4363036;32;19938;-74
2023/02/16 10:08:55;;;;;;;;;;;;;;;;;;4361464;32;19970;-73
2023/02/16 10:14:04;;;;;;;;;;;;;;;;;;4363145;32;20015;-75
2023/02/16 10:16:29;;;;;;;;;;;;;;;;;;4361956;32;19962;-74
2023/02/16 10:18:54;;;;;;;;;;;;;;;;;;4376893;32;19941;-74
2023/02/16 10:21:20;;;;;;;;;;;;;;;;;;4379013;32;19957;-74
2023/02/16 10:23:46;;;;;;;;;;;;;;;;;;4375406;32;19930;-74
2023/02/16 10:26:11;;;;;;;;;;;;;;;;;;4377028;32;19957;-73
2023/02/16 10:28:37;;;;;;;;;;;;;;;;;;4375334;32;19965;-73
2023/02/16 10:31:02;;;;;;;;;;;;;;;;;;4370923;32;19952;-74
2023/02/16 10:33:27;;;;;;;;;;;;;;;;;;4366168;32;19938;-74
2023/02/16 10:35:52;;;;;;;;;;;;;;;;;;4362995;32;19994;-74
2023/02/16 10:38:18;;;;;;;;;;;;;;;;;;4363173;32;19938;-74
2023/02/16 10:40:44;;;;;;;;;;;;;;;;;;4359259;32;20013;-74
2023/02/16 10:43:09;;;;;;;;;;;;;;;;;;4370608;32;19965;-74
2023/02/16 10:45:34;;;;;;;;;;;;;;;;;;4353825;32;20043;-74
2023/02/16 10:48:00;;;;;;;;;;;;;;;;;;4359840;32;19942;-73
2023/02/16 10:50:25;;;;;;;;;;;;;;;;;;4359854;33;20296;-73
2023/02/16 10:52:50;;;;;;;;;;;;;;;;;;4362524;32;20316;-75
2023/02/16 10:55:15;;;;;;;;;;;;;;;;;;4361148;32;19934;-74
2023/02/16 10:57:40;;;;;;;;;;;;;;;;;;4360868;32;19945;-74
2023/02/16 11:00:05;;;;;;;;;;;;;;;;;;4361357;32;19938;-74
2023/02/16 11:02:30;;;;;;;;;;;;;;;;;;4359737;32;19938;-73
2023/02/16 11:04:56;;;;;;;;;;;;;;;;;;4363028;32;20046;-73
2023/02/16 11:07:21;;;;;;;;;;;;;;;;;;4359173;32;19946;-73
2023/02/16 11:09:46;;;;;;;;;;;;;;;;;;4359015;32;19962;-74
2023/02/16 11:12:11;;;;;;;;;;;;;;;;;;4357509;32;19962;-74
2023/02/16 11:14:36;;;;;;;;;;;;;;;;;;4360080;32;19988;-74
2023/02/16 11:17:01;;;;;;;;;;;;;;;;;;4361831;32;19943;-73
2023/02/16 11:19:27;;;;;;;;;;;;;;;;;;4359978;32;20480;-74
2023/02/16 11:21:55;;;;;;;;;;;;;;;;;;4357115;32;19953;-74
2023/02/16 11:24:21;;;;;;;;;;;;;;;;;;4360776;32;19938;-74
2023/02/16 11:26:46;;;;;;;;;;;;;;;;;;4360291;33;19966;-73
2023/02/16 11:29:11;;;;;;;;;;;;;;;;;;4357016;32;20328;-73
2023/02/16 11:31:36;;;;;;;;;;;;;;;;;;4355483;32;20017;-74
2023/02/16 11:34:02;;;;;;;;;;;;;;;;;;4365497;32;20340;-74
2023/02/16 11:36:28;;;;;;;;;;;;;;;;;;4360814;33;19938;-73
2023/02/16 11:38:53;;;;;;;;;;;;;;;;;;4363495;32;19947;-73
2023/02/16 11:41:18;;;;;;;;;;;;;;;;;;4360679;33;20362;-73
2023/02/16 11:43:43;;;;;;;;;;;;;;;;;;4357241;32;19946;-73
2023/02/16 11:46:08;;;;;;;;;;;;;;;;;;4361665;32;19992;-73
2023/02/16 11:48:33;;;;;;;;;;;;;;;;;;4362549;32;19938;-74
2023/02/16 11:50:59;;;;;;;;;;;;;;;;;;4369403;32;19982;-72
2023/02/16 11:53:24;;;;;;;;;;;;;;;;;;4368133;32;19982;-73
2023/02/16 11:55:49;;;;;;;;;;;;;;;;;;4362122;32;19942;-73
2023/02/16 11:58:14;;;;;;;;;;;;;;;;;;4360933;32;19951;-74
2023/02/16 12:00:40;;;;;;;;;;;;;;;;;;4360124;32;19949;-74
2023/02/16 12:03:06;;;;;;;;;;;;;;;;;;4360868;32;19961;-73
2023/02/16 12:05:31;;;;;;;;;;;;;;;;;;4360541;32;19958;-74
2023/02/16 12:07:57;;;;;;;;;;;;;;;;;;4360161;32;20338;-74
2023/02/16 12:10:22;;;;;;;;;;;;;;;;;;4360079;33;19958;-75
2023/02/16 12:12:47;;;;;;;;;;;;;;;;;;4360102;32;19992;-74
2023/02/16 12:15:12;;;;;;;;;;;;;;;;;;4359004;33;19962;-74
2023/02/16 12:17:37;;;;;;;;;;;;;;;;;;4361520;32;19953;-74
2023/02/16 12:20:02;;;;;;;;;;;;;;;;;;4361796;33;19973;-74
2023/02/16 12:22:27;;;;;;;;;;;;;;;;;;4354511;33;19946;-73
2023/02/16 12:24:52;;;;;;;;;;;;;;;;;;4361991;33;20294;-73
2023/02/16 12:27:17;;;;;;;;;;;;;;;;;;4359945;33;19962;-73
2023/02/16 12:29:43;;;;;;;;;;;;;;;;;;4358928;33;19946;-73
2023/02/16 12:32:09;;;;;;;;;;;;;;;;;;4359873;33;19946;-74
2023/02/16 12:34:34;;;;;;;;;;;;;;;;;;4370006;32;19974;-73
2023/02/16 12:37:00;;;;;;;;;;;;;;;;;;4361408;32;20355;-74
2023/02/16 12:39:25;;;;;;;;;;;;;;;;;;4360029;33;19954;-73
2023/02/16 12:41:50;;;;;;;;;;;;;;;;;;4364365;32;19974;-72
2023/02/16 12:44:15;;;;;;;;;;;;;;;;;;4363596;32;19966;-75
2023/02/16 12:46:40;;;;;;;;;;;;;;;;;;4361741;33;19956;-78
2023/02/16 12:49:06;;;;;;;;;;;;;;;;;;4359523;33;20343;-77
2023/02/16 12:51:31;;;;;;;;;;;;;;;;;;4361954;32;20042;-73
2023/02/16 12:53:56;;;;;;;;;;;;;;;;;;4363735;32;19980;-73
2023/02/16 12:56:21;;;;;;;;;;;;;;;;;;4363783;32;19942;-75
2023/02/16 12:58:48;;;;;;;;;;;;;;;;;;4362751;32;19988;-73
2023/02/16 13:01:14;;;;;;;;;;;;;;;;;;4350620;32;19947;-74
2023/02/16 13:03:39;;;;;;;;;;;;;;;;;;4351092;33;19969;-74
2023/02/16 13:06:05;;;;;;;;;;;;;;;;;;4350158;32;19978;-74
2023/02/16 13:08:30;;;;;;;;;;;;;;;;;;4352759;32;19935;-75
2023/02/16 13:10:55;;;;;;;;;;;;;;;;;;4354164;32;19979;-75
2023/02/16 13:13:20;;;;;;;;;;;;;;;;;;4355910;33;19954;-75
2023/02/16 13:15:46;;;;;;;;;;;;;;;;;;4363980;33;19994;-74
2023/02/16 13:18:11;;;;;;;;;;;;;;;;;;4363907;32;19943;-78
2023/02/16 13:20:36;;;;;;;;;;;;;;;;;;4363752;32;19954;-78
2023/02/16 13:23:01;;;;;;;;;;;;;;;;;;4363379;32;20002;-79
2023/02/16 13:25:26;;;;;;;;;;;;;;;;;;4362602;32;19946;-78
2023/02/16 13:27:52;;;;;;;;;;;;;;;;;;4366850;32;19945;-76
2023/02/16 13:30:19;;;;;;;;;;;;;;;;;;4379244;32;20036;-76
2023/02/16 13:32:44;;;;;;;;;;;;;;;;;;4375205;32;20024;-77
2023/02/16 13:35:09;;;;;;;;;;;;;;;;;;4363840;32;19994;-78
2023/02/16 13:39:15;;;;;;;29.17;18.65;;;;;;;;;;4478485;31;20063;-76
2023/02/16 13:41:40;;;;;;;26.90;17.25;;;;;;;;;;4445587;32;20386;-77
2023/02/16 13:44:06;;;;;;;;;;;;;;;;;;4466598;32;20140;-80
2023/02/16 13:46:33;;;;;;;25.70;17.37;;;;;;;;;;4451688;32;20243;-79
2023/02/16 13:48:59;;;;;;;29.48;16.98;;;;;;;;;;4466715;32;20025;-78
2023/02/16 13:51:26;;;;;;;27.95;18.87;;;;;;;;;;4466122;32;20063;-78
2023/02/16 13:53:56;;;;;;;26.27;18.52;;;;;;;;;;4462820;32;20029;-80
2023/02/16 13:56:22;;;;;;;29.30;18.15;;;;;;;;;;4452087;32;20036;-79
2023/02/16 13:58:47;;;;;;;;;;;;;;;;;;4452090;32;20055;-79
2023/02/16 14:01:30;;;;;;;28.42;19.85;;;;;;;;;;4464972;32;19936;-79
2023/02/16 14:03:56;;;;;;;29.20;20.25;;;;;;;;;;4464202;32;20053;-77
2023/02/16 14:06:28;;;;;;;31.58;20.90;;;;;;;;;;4465687;32;20067;-79
2023/02/16 14:09:13;;;;;;;33.03;20.52;;;;;;;;;;4436068;32;20378;-78
2023/02/16 14:11:58;;;;;;;28.23;20.10;;;;;;;;;;4448794;32;20044;-78
2023/02/16 14:14:28;;;;;;;32.53;23.45;;;;;;;;;;4430256;32;20033;-80
2023/02/16 14:16:53;;;;;;;35.75;22.45;;;;;;;;;;4439271;32;20038;-79
2023/02/16 14:19:22;;;;;;;38.25;24.87;;;;;;;;;;4428583;32;20081;-78
2023/02/16 14:21:48;;;;;;;35.28;25.98;;;;;;;;;;4442552;32;20108;-79
2023/02/16 14:24:13;;;;;;;37.88;25.73;;;;;;;;;;4443443;32;20030;-79
2023/02/16 14:26:38;;;;;;;;;;;;;;;;;;4441342;32;20084;-80
2023/02/16 14:29:09;;;;;;;39.75;27.05;;;;;;;;;;4421084;32;19944;-79
2023/02/16 14:31:40;;;;;;;39.90;28.17;;;;;;;;;;4430043;32;20028;-78
2023/02/16 14:34:13;;;;;;;37.55;26.40;;;;;;;;;;4422009;32;20095;-80
2023/02/16 14:36:57;;;;;;;40.55;26.85;;;;;;;;;;4429791;32;20090;-78
2023/02/16 14:39:24;;;;;;;41.30;25.70;;;;;;;;;;4447791;32;20045;-78
2023/02/16 14:41:50;;;;;;;37.22;26.23;;;;;;;;;;4421511;32;20160;-78
2023/02/16 14:44:15;;;;;;;;;;;;;;;;;;4440537;32;20124;-79
2023/02/16 14:46:59;;;;;;;40.15;27.60;;;;;;;;;;4437455;32;19951;-78
2023/02/16 14:49:32;;;;;;;39.80;28.17;;;;;;;;;;4430796;32;20054;-78
2023/02/16 14:52:16;;;;;;;42.35;29.98;;;;;;;;;;4434070;32;20030;-78
2023/02/16 14:55:01;;;;;;;46.70;30.80;;;;;;;;;;4416114;32;20091;-77
2023/02/16 14:57:52;;;;;;;44.58;32.45;;;;;;;;;;4424379;32;20114;-78
2023/02/16 15:00:29;;;;;;;51.33;33.95;;;;;;;;;;4399587;32;20253;-77
2023/02/16 15:03:02;;;;;;;57.83;37.60;;;;;;;;;;4428009;32;20038;-80
2023/02/16 15:05:31;;;;;;;52.42;37.63;;;;;;;;;;4418111;32;20033;-78
2023/02/16 15:08:11;;;;;;;54.38;38.03;;;;;;;;;;4435823;32;20091;-77
2023/02/16 15:10:37;;;;;;;53.97;37.53;;;;;;;;;;4430059;32;20064;-77
2023/02/16 15:13:03;;;;;;;55.28;38.03;;;;;;;;;;4419108;32;20038;-78
2023/02/16 15:15:28;;;;;;;;;;;;;;;;;;4417503;32;20053;-78
2023/02/16 15:17:54;;;;;;;57.40;42.17;;;;;;;;;;4434726;32;19944;-80
2023/02/16 15:20:23;;;;;;;61.40;39.45;;;;;;;;;;4420293;32;20117;-78
2023/02/16 15:22:50;;;;;;;51.78;38.83;;;;;;;;;;4422553;32;20052;-79
2023/02/16 15:25:19;;;;;;;54.13;39.03;;;;;;;;;;4427941;32;20122;-78
2023/02/16 15:27:52;;;;;;;57.25;40.45;;;;;;;;;;4437235;32;20060;-79
2023/02/16 15:30:24;;;;;;;60.00;40.63;;;;;;;;;;4441182;32;20029;-77
2023/02/16 15:33:12;;;;;;;52.45;37.30;;;;;;;;;;4420114;32;20038;-78
2023/02/16 15:35:41;;;;;;;51.90;36.67;;;;;;;;;;4435167;32;20041;-78
2023/02/16 15:38:24;;;;;;;58.67;37.60;;;;;;;;;;4422884;32;20105;-78
2023/02/16 15:40:53;;;;;;;46.80;33.50;;;;;;;;;;4423745;32;20117;-79
2023/02/16 15:43:36;;;;;;;48.92;33.58;;;;;;;;;;4428564;32;20431;-78
2023/02/16 15:46:02;;;;;;;49.08;33.15;;;;;;;;;;4436929;32;20029;-77
2023/02/16 15:48:28;;;;;;;48.40;34.17;;;;;;;;;;4438394;32;20038;-77
2023/02/16 15:51:09;;;;;;;47.62;32.20;;;;;;;;;;4437252;32;20033;-77
2023/02/16 15:53:37;;;;;;;48.20;33.45;;;;;;;;;;4438852;32;20042;-77
2023/02/16 15:56:09;;;;;;;42.17;29.67;;;;;;;;;;4439034;32;20053;-77
2023/02/16 15:58:35;;;;;;;40.17;30.83;;;;;;;;;;4437514;32;20359;-78
2023/02/16 16:01:00;;;;;;;;;;;;;;;;;;4434914;32;20069;-79
2023/02/16 16:03:25;;;;;;;42.15;31.33;;;;;;;;;;4423140;32;19983;-79
2023/02/16 16:05:51;;;;;;;;;;;;;;;;;;4427152;32;20128;-79
2023/02/16 16:08:20;;;;;;;49.80;32.17;;;;;;;;;;4438340;32;19951;-78
2023/02/16 16:10:46;;;;;;;52.33;34.38;;;;;;;;;;4438784;32;20034;-79
2023/02/16 16:13:17;;;;;;;52.90;35.20;;;;;;;;;;4440250;32;20472;-78
2023/02/16 16:15:46;;;;;;;54.15;35.00;;;;;;;;;;4442057;32;20089;-79
2023/02/16 16:18:40;;;;;;;55.53;36.95;;;;;;;;;;4424363;32;20034;-78
2023/02/16 16:21:16;;;;;;;53.15;36.10;;;;;;;;;;4420334;32;20087;-79
2023/02/16 16:23:51;;;;;;;60.58;39.47;;;;;;;;;;4427519;32;20417;-77
2023/02/16 16:26:17;;;;;;;62.17;42.15;;;;;;;;;;4432804;32;20065;-78
2023/02/16 16:28:43;;;;;;;66.65;42.00;;;;;;;;;;4440424;32;20086;-78
2023/02/16 16:31:08;;;;;;;;;;;;;;;;;;4433041;32;20056;-77
2023/02/16 16:33:53;;;;;;;68.35;42.72;;;;;;;;;;4436738;32;19977;-77
2023/02/16 16:36:18;;;;;;;65.68;44.50;;;;;;;;;;4436052;32;20120;-78
2023/02/16 16:38:44;;;;;;;;;;;;;;;;;;4436664;32;20414;-79
2023/02/16 16:41:24;;;;;;;73.18;45.65;;;;;;;;;;4436746;32;20351;-78
2023/02/16 16:43:54;;;;;;;79.20;49.22;;;;;;;;;;4436756;32;20136;-78
2023/02/16 16:46:24;;;;;;;75.65;47.67;;;;;;;;;;4424627;32;20110;-79
2023/02/16 16:48:55;;;;;;;79.40;51.83;;;;;;;;;;4422754;32;20061;-79
2023/02/16 16:51:35;;;;;;;75.20;50.03;;;;;;;;;;4423270;32;20038;-78
2023/02/16 16:54:04;;;;;;;75.45;48.17;;;;;;;;;;4437609;32;20026;-77
2023/02/16 16:56:30;;;;;;;76.95;49.70;;;;;;;;;;4438559;32;20097;-78
2023/02/16 16:58:55;;;;;;;;;;;;;;;;;;4436898;32;20091;-78
2023/02/16 17:01:21;;;;;;;78.87;55.30;;;;;;;;;;4436055;32;20270;-77